sensor_id;sensor_type;location;lat;lon;timestamp;P1;durP1;ratioP1;P2;durP2;ratioP2
23232;SDS011;11785;49.500;8.288;2023-12-04T00:00:00;39.60;;;20.30;;
23232;SDS011;11785;49.500;8.288;2023-12-04T00:02:27;38.92;;;19.92;;
23232;SDS011;11785;49.500;8.288;2023-12-04T00:04:53;38.97;;;20.60;;
23232;SDS011;11785;49.500;8.288;2023-12-04T00:07:18;37.88;;;19.98;;
23232;SDS011;11785;49.500;8.288;2023-12-04T00:09:44;40.22;;;20.00;;
23232;SDS011;11785;49.500;8.288;2023-12-04T00:12:09;41.20;;;19.67;;
23232;SDS011;11785;49.500;8.288;2023-12-04T00:14:35;36.63;;;19.67;;
23232;SDS011;11785;49.500;8.288;2023-12-04T00:17:00;37.13;;;18.95;;
23232;SDS011;11785;49.500;8.288;2023-12-04T00:19:26;41.47;;;20.73;;
23232;SDS011;11785;49.500;8.288;2023-12-04T00:21:51;35.97;;;20.30;;
23232;SDS011;11785;49.500;8.288;2023-12-04T00:24:17;43.08;;;20.92;;
23232;SDS011;11785;49.500;8.288;2023-12-04T00:26:42;41.38;;;20.90;;
23232;SDS011;11785;49.500;8.288;2023-12-04T00:29:08;47.40;;;21.80;;
23232;SDS011;11785;49.500;8.288;2023-12-04T00:31:34;46.50;;;21.55;;
23232;SDS011;11785;49.500;8.288;2023-12-04T00:33:59;45.63;;;22.30;;
23232;SDS011;11785;49.500;8.288;2023-12-04T00:36:25;38.13;;;19.63;;
23232;SDS011;11785;49.500;8.288;2023-12-04T00:38:50;42.72;;;22.23;;
23232;SDS011;11785;49.500;8.288;2023-12-04T00:41:16;43.85;;;20.98;;
23232;SDS011;11785;49.500;8.288;2023-12-04T00:43:41;37.25;;;19.95;;
23232;SDS011;11785;49.500;8.288;2023-12-04T00:46:07;42.05;;;20.65;;
23232;SDS011;11785;49.500;8.288;2023-12-04T00:48:32;43.78;;;21.88;;
23232;SDS011;11785;49.500;8.288;2023-12-04T00:50:58;43.95;;;21.52;;
23232;SDS011;11785;49.500;8.288;2023-12-04T00:53:23;44.55;;;21.30;;
23232;SDS011;11785;49.500;8.288;2023-12-04T00:55:49;38.80;;;20.17;;
23232;SDS011;11785;49.500;8.288;2023-12-04T00:58:14;42.88;;;22.00;;
23232;SDS011;11785;49.500;8.288;2023-12-04T01:00:40;43.67;;;21.27;;
23232;SDS011;11785;49.500;8.288;2023-12-04T01:03:05;37.33;;;19.58;;
23232;SDS011;11785;49.500;8.288;2023-12-04T01:05:31;38.08;;;19.77;;
23232;SDS011;11785;49.500;8.288;2023-12-04T01:07:56;43.63;;;19.90;;
23232;SDS011;11785;49.500;8.288;2023-12-04T01:10:22;40.05;;;21.35;;
23232;SDS011;11785;49.500;8.288;2023-12-04T01:12:48;43.75;;;20.15;;
23232;SDS011;11785;49.500;8.288;2023-12-04T01:15:13;40.83;;;20.30;;
23232;SDS011;11785;49.500;8.288;2023-12-04T01:17:39;41.05;;;20.67;;
23232;SDS011;11785;49.500;8.288;2023-12-04T01:20:04;42.42;;;20.00;;
23232;SDS011;11785;49.500;8.288;2023-12-04T01:22:30;40.40;;;20.25;;
23232;SDS011;11785;49.500;8.288;2023-12-04T01:24:56;41.17;;;19.92;;
23232;SDS011;11785;49.500;8.288;2023-12-04T01:27:22;39.75;;;20.85;;
23232;SDS011;11785;49.500;8.288;2023-12-04T01:29:47;40.08;;;19.98;;
23232;SDS011;11785;49.500;8.288;2023-12-04T01:32:13;39.03;;;19.75;;
23232;SDS011;11785;49.500;8.288;2023-12-04T01:34:38;40.50;;;20.38;;
23232;SDS011;11785;49.500;8.288;2023-12-04T01:37:04;39.30;;;19.80;;
23232;SDS011;11785;49.500;8.288;2023-12-04T01:39:30;34.80;;;18.42;;
23232;SDS011;11785;49.500;8.288;2023-12-04T01:41:55;42.92;;;18.88;;
23232;SDS011;11785;49.500;8.288;2023-12-04T01:44:21;35.47;;;17.85;;
23232;SDS011;11785;49.500;8.288;2023-12-04T01:46:48;35.17;;;18.40;;
23232;SDS011;11785;49.500;8.288;2023-12-04T01:49:14;34.92;;;17.25;;
23232;SDS011;11785;49.500;8.288;2023-12-04T01:51:40;32.35;;;18.13;;
23232;SDS011;11785;49.500;8.288;2023-12-04T01:54:06;38.03;;;17.83;;
23232;SDS011;11785;49.500;8.288;2023-12-04T01:56:33;34.92;;;18.45;;
23232;SDS011;11785;49.500;8.288;2023-12-04T01:59:01;37.85;;;19.13;;
23232;SDS011;11785;49.500;8.288;2023-12-04T02:01:27;36.88;;;18.92;;
23232;SDS011;11785;49.500;8.288;2023-12-04T02:03:54;35.28;;;17.85;;
23232;SDS011;11785;49.500;8.288;2023-12-04T02:06:21;34.70;;;18.10;;
23232;SDS011;11785;49.500;8.288;2023-12-04T02:08:47;34.35;;;17.60;;
23232;SDS011;11785;49.500;8.288;2023-12-04T02:11:13;36.05;;;18.63;;
23232;SDS011;11785;49.500;8.288;2023-12-04T02:13:39;35.67;;;18.25;;
23232;SDS011;11785;49.500;8.288;2023-12-04T02:16:05;37.05;;;17.88;;
23232;SDS011;11785;49.500;8.288;2023-12-04T02:18:35;36.30;;;18.67;;
23232;SDS011;11785;49.500;8.288;2023-12-04T02:21:01;36.33;;;18.35;;
23232;SDS011;11785;49.500;8.288;2023-12-04T02:23:27;37.05;;;18.15;;
23232;SDS011;11785;49.500;8.288;2023-12-04T02:25:59;35.50;;;18.25;;
23232;SDS011;11785;49.500;8.288;2023-12-04T02:28:32;39.25;;;18.02;;
23232;SDS011;11785;49.500;8.288;2023-12-04T02:30:59;34.83;;;18.13;;
23232;SDS011;11785;49.500;8.288;2023-12-04T02:33:26;34.97;;;18.58;;
23232;SDS011;11785;49.500;8.288;2023-12-04T02:35:53;36.35;;;18.58;;
23232;SDS011;11785;49.500;8.288;2023-12-04T02:38:20;33.92;;;17.88;;
23232;SDS011;11785;49.500;8.288;2023-12-04T02:40:46;33.42;;;16.98;;
23232;SDS011;11785;49.500;8.288;2023-12-04T02:43:12;34.17;;;17.75;;
23232;SDS011;11785;49.500;8.288;2023-12-04T02:45:38;37.75;;;18.73;;
23232;SDS011;11785;49.500;8.288;2023-12-04T02:48:03;34.83;;;17.95;;
23232;SDS011;11785;49.500;8.288;2023-12-04T02:50:29;36.33;;;18.08;;
23232;SDS011;11785;49.500;8.288;2023-12-04T02:52:55;40.63;;;19.05;;
23232;SDS011;11785;49.500;8.288;2023-12-04T02:55:20;34.00;;;18.42;;
23232;SDS011;11785;49.500;8.288;2023-12-04T02:57:46;35.40;;;18.80;;
23232;SDS011;11785;49.500;8.288;2023-12-04T03:00:11;36.88;;;18.77;;
23232;SDS011;11785;49.500;8.288;2023-12-04T03:02:37;37.10;;;18.40;;
23232;SDS011;11785;49.500;8.288;2023-12-04T03:05:03;36.75;;;17.85;;
23232;SDS011;11785;49.500;8.288;2023-12-04T03:07:29;33.00;;;17.63;;
23232;SDS011;11785;49.500;8.288;2023-12-04T03:09:54;34.25;;;17.73;;
23232;SDS011;11785;49.500;8.288;2023-12-04T03:12:20;35.03;;;17.00;;
23232;SDS011;11785;49.500;8.288;2023-12-04T03:14:45;36.55;;;17.90;;
23232;SDS011;11785;49.500;8.288;2023-12-04T03:17:11;32.00;;;17.35;;
23232;SDS011;11785;49.500;8.288;2023-12-04T03:19:36;32.72;;;16.67;;
23232;SDS011;11785;49.500;8.288;2023-12-04T03:22:02;29.20;;;16.38;;
23232;SDS011;11785;49.500;8.288;2023-12-04T03:24:27;32.63;;;17.05;;
23232;SDS011;11785;49.500;8.288;2023-12-04T03:26:54;32.00;;;16.67;;
23232;SDS011;11785;49.500;8.288;2023-12-04T03:29:19;30.92;;;16.10;;
23232;SDS011;11785;49.500;8.288;2023-12-04T03:31:45;30.75;;;16.42;;
23232;SDS011;11785;49.500;8.288;2023-12-04T03:34:10;34.10;;;16.73;;
23232;SDS011;11785;49.500;8.288;2023-12-04T03:36:36;30.27;;;17.23;;
23232;SDS011;11785;49.500;8.288;2023-12-04T03:39:01;33.38;;;16.65;;
23232;SDS011;11785;49.500;8.288;2023-12-04T03:41:35;33.47;;;18.02;;
23232;SDS011;11785;49.500;8.288;2023-12-04T03:44:01;34.40;;;17.75;;
23232;SDS011;11785;49.500;8.288;2023-12-04T03:46:26;33.92;;;17.20;;
23232;SDS011;11785;49.500;8.288;2023-12-04T03:48:52;34.25;;;16.55;;
23232;SDS011;11785;49.500;8.288;2023-12-04T03:51:17;30.25;;;15.90;;
23232;SDS011;11785;49.500;8.288;2023-12-04T03:53:43;34.70;;;17.45;;
23232;SDS011;11785;49.500;8.288;2023-12-04T03:56:08;34.50;;;17.13;;
23232;SDS011;11785;49.500;8.288;2023-12-04T03:58:35;34.95;;;17.80;;
23232;SDS011;11785;49.500;8.288;2023-12-04T04:01:02;30.27;;;16.13;;
23232;SDS011;11785;49.500;8.288;2023-12-04T04:03:28;34.75;;;17.42;;
23232;SDS011;11785;49.500;8.288;2023-12-04T04:05:53;34.50;;;16.85;;
23232;SDS011;11785;49.500;8.288;2023-12-04T04:08:19;31.60;;;16.65;;
23232;SDS011;11785;49.500;8.288;2023-12-04T04:10:44;31.48;;;16.52;;
23232;SDS011;11785;49.500;8.288;2023-12-04T04:13:10;36.13;;;17.27;;
23232;SDS011;11785;49.500;8.288;2023-12-04T04:15:36;32.45;;;17.20;;
23232;SDS011;11785;49.500;8.288;2023-12-04T04:18:01;32.30;;;16.88;;
23232;SDS011;11785;49.500;8.288;2023-12-04T04:20:27;34.10;;;17.45;;
23232;SDS011;11785;49.500;8.288;2023-12-04T04:22:52;34.38;;;18.00;;
23232;SDS011;11785;49.500;8.288;2023-12-04T04:25:19;30.35;;;15.57;;
23232;SDS011;11785;49.500;8.288;2023-12-04T04:27:46;32.63;;;16.98;;
23232;SDS011;11785;49.500;8.288;2023-12-04T04:30:12;32.40;;;17.02;;
23232;SDS011;11785;49.500;8.288;2023-12-04T04:32:38;34.88;;;17.45;;
23232;SDS011;11785;49.500;8.288;2023-12-04T04:35:04;37.05;;;18.67;;
23232;SDS011;11785;49.500;8.288;2023-12-04T04:37:29;37.83;;;19.67;;
23232;SDS011;11785;49.500;8.288;2023-12-04T04:39:55;37.13;;;17.83;;
23232;SDS011;11785;49.500;8.288;2023-12-04T04:42:22;36.47;;;20.05;;
23232;SDS011;11785;49.500;8.288;2023-12-04T04:44:47;35.33;;;18.45;;
23232;SDS011;11785;49.500;8.288;2023-12-04T04:47:13;34.80;;;18.38;;
23232;SDS011;11785;49.500;8.288;2023-12-04T04:49:38;34.13;;;17.67;;
23232;SDS011;11785;49.500;8.288;2023-12-04T04:52:04;32.33;;;17.33;;
23232;SDS011;11785;49.500;8.288;2023-12-04T04:54:33;33.50;;;17.58;;
23232;SDS011;11785;49.500;8.288;2023-12-04T04:56:58;33.97;;;16.60;;
23232;SDS011;11785;49.500;8.288;2023-12-04T04:59:24;29.58;;;16.15;;
23232;SDS011;11785;49.500;8.288;2023-12-04T05:01:49;30.13;;;16.73;;
23232;SDS011;11785;49.500;8.288;2023-12-04T05:04:15;32.75;;;16.42;;
23232;SDS011;11785;49.500;8.288;2023-12-04T05:06:40;34.03;;;17.17;;
23232;SDS011;11785;49.500;8.288;2023-12-04T05:09:06;31.52;;;16.70;;
23232;SDS011;11785;49.500;8.288;2023-12-04T05:11:31;32.95;;;16.85;;
23232;SDS011;11785;49.500;8.288;2023-12-04T05:13:57;29.08;;;16.02;;
23232;SDS011;11785;49.500;8.288;2023-12-04T05:16:22;36.65;;;17.55;;
23232;SDS011;11785;49.500;8.288;2023-12-04T05:18:48;29.92;;;17.13;;
23232;SDS011;11785;49.500;8.288;2023-12-04T05:21:13;33.08;;;17.38;;
23232;SDS011;11785;49.500;8.288;2023-12-04T05:23:39;33.63;;;17.77;;
23232;SDS011;11785;49.500;8.288;2023-12-04T05:26:05;31.08;;;16.25;;
23232;SDS011;11785;49.500;8.288;2023-12-04T05:28:31;35.55;;;16.92;;
23232;SDS011;11785;49.500;8.288;2023-12-04T05:30:57;33.08;;;17.90;;
23232;SDS011;11785;49.500;8.288;2023-12-04T05:33:23;39.35;;;22.98;;
23232;SDS011;11785;49.500;8.288;2023-12-04T05:35:49;35.83;;;18.83;;
23232;SDS011;11785;49.500;8.288;2023-12-04T05:38:16;26.83;;;14.55;;
23232;SDS011;11785;49.500;8.288;2023-12-04T05:40:42;29.48;;;15.68;;
23232;SDS011;11785;49.500;8.288;2023-12-04T05:43:08;30.77;;;15.20;;
23232;SDS011;11785;49.500;8.288;2023-12-04T05:45:33;27.95;;;14.43;;
23232;SDS011;11785;49.500;8.288;2023-12-04T05:47:59;26.83;;;14.05;;
23232;SDS011;11785;49.500;8.288;2023-12-04T05:50:25;30.92;;;15.48;;
23232;SDS011;11785;49.500;8.288;2023-12-04T05:52:50;26.98;;;13.73;;
23232;SDS011;11785;49.500;8.288;2023-12-04T05:55:16;29.35;;;14.75;;
23232;SDS011;11785;49.500;8.288;2023-12-04T05:57:43;28.05;;;15.18;;
23232;SDS011;11785;49.500;8.288;2023-12-04T06:00:09;25.15;;;14.57;;
23232;SDS011;11785;49.500;8.288;2023-12-04T06:02:38;26.08;;;14.32;;
23232;SDS011;11785;49.500;8.288;2023-12-04T06:05:05;28.48;;;15.38;;
23232;SDS011;11785;49.500;8.288;2023-12-04T06:07:31;32.03;;;16.65;;
23232;SDS011;11785;49.500;8.288;2023-12-04T06:09:57;27.02;;;14.75;;
23232;SDS011;11785;49.500;8.288;2023-12-04T06:12:22;28.65;;;14.13;;
23232;SDS011;11785;49.500;8.288;2023-12-04T06:14:48;31.77;;;14.82;;
23232;SDS011;11785;49.500;8.288;2023-12-04T06:17:13;25.80;;;13.55;;
23232;SDS011;11785;49.500;8.288;2023-12-04T06:19:39;28.35;;;14.70;;
23232;SDS011;11785;49.500;8.288;2023-12-04T06:22:05;29.88;;;15.68;;
23232;SDS011;11785;49.500;8.288;2023-12-04T06:24:30;41.50;;;20.83;;
23232;SDS011;11785;49.500;8.288;2023-12-04T06:26:57;51.65;;;24.00;;
23232;SDS011;11785;49.500;8.288;2023-12-04T06:29:23;38.92;;;18.55;;
23232;SDS011;11785;49.500;8.288;2023-12-04T06:31:49;46.17;;;21.35;;
23232;SDS011;11785;49.500;8.288;2023-12-04T06:34:14;76.35;;;31.15;;
23232;SDS011;11785;49.500;8.288;2023-12-04T06:36:40;122.75;;;41.38;;
23232;SDS011;11785;49.500;8.288;2023-12-04T06:39:10;126.07;;;41.50;;
23232;SDS011;11785;49.500;8.288;2023-12-04T06:41:39;151.52;;;54.67;;
23232;SDS011;11785;49.500;8.288;2023-12-04T06:44:06;83.72;;;33.38;;
23232;SDS011;11785;49.500;8.288;2023-12-04T06:46:32;43.22;;;22.60;;
23232;SDS011;11785;49.500;8.288;2023-12-04T06:49:01;56.53;;;25.73;;
23232;SDS011;11785;49.500;8.288;2023-12-04T06:51:30;39.38;;;18.90;;
23232;SDS011;11785;49.500;8.288;2023-12-04T06:53:55;27.73;;;15.35;;
23232;SDS011;11785;49.500;8.288;2023-12-04T06:56:21;29.73;;;15.18;;
23232;SDS011;11785;49.500;8.288;2023-12-04T06:58:47;25.15;;;14.35;;
23232;SDS011;11785;49.500;8.288;2023-12-04T07:01:12;27.23;;;14.75;;
23232;SDS011;11785;49.500;8.288;2023-12-04T07:03:39;29.88;;;14.43;;
23232;SDS011;11785;49.500;8.288;2023-12-04T07:06:04;27.45;;;14.23;;
23232;SDS011;11785;49.500;8.288;2023-12-04T07:08:40;23.75;;;14.05;;
23232;SDS011;11785;49.500;8.288;2023-12-04T07:11:06;26.88;;;13.25;;
23232;SDS011;11785;49.500;8.288;2023-12-04T07:13:33;25.77;;;12.55;;
23232;SDS011;11785;49.500;8.288;2023-12-04T07:15:59;23.20;;;12.30;;
23232;SDS011;11785;49.500;8.288;2023-12-04T07:18:24;23.70;;;12.63;;
23232;SDS011;11785;49.500;8.288;2023-12-04T07:20:50;22.80;;;12.35;;
23232;SDS011;11785;49.500;8.288;2023-12-04T07:23:16;21.27;;;12.15;;
23232;SDS011;11785;49.500;8.288;2023-12-04T07:25:42;20.55;;;11.70;;
23232;SDS011;11785;49.500;8.288;2023-12-04T07:28:08;25.85;;;11.95;;
23232;SDS011;11785;49.500;8.288;2023-12-04T07:30:33;23.67;;;12.77;;
23232;SDS011;11785;49.500;8.288;2023-12-04T07:32:59;23.92;;;13.05;;
23232;SDS011;11785;49.500;8.288;2023-12-04T07:35:25;19.63;;;11.88;;
23232;SDS011;11785;49.500;8.288;2023-12-04T07:37:51;23.35;;;11.95;;
23232;SDS011;11785;49.500;8.288;2023-12-04T07:40:17;24.50;;;12.55;;
23232;SDS011;11785;49.500;8.288;2023-12-04T07:42:43;24.17;;;12.07;;
23232;SDS011;11785;49.500;8.288;2023-12-04T07:45:08;22.38;;;12.32;;
23232;SDS011;11785;49.500;8.288;2023-12-04T07:47:35;21.95;;;12.88;;
23232;SDS011;11785;49.500;8.288;2023-12-04T07:50:01;25.67;;;12.52;;
23232;SDS011;11785;49.500;8.288;2023-12-04T07:52:26;21.20;;;11.77;;
23232;SDS011;11785;49.500;8.288;2023-12-04T07:54:52;20.17;;;11.60;;
23232;SDS011;11785;49.500;8.288;2023-12-04T07:57:18;21.67;;;11.63;;
23232;SDS011;11785;49.500;8.288;2023-12-04T07:59:44;19.90;;;11.07;;
23232;SDS011;11785;49.500;8.288;2023-12-04T08:02:09;25.02;;;12.40;;
23232;SDS011;11785;49.500;8.288;2023-12-04T08:04:35;23.40;;;11.73;;
23232;SDS011;11785;49.500;8.288;2023-12-04T08:07:01;20.33;;;11.38;;
23232;SDS011;11785;49.500;8.288;2023-12-04T08:09:27;21.63;;;11.38;;
23232;SDS011;11785;49.500;8.288;2023-12-04T08:11:52;24.00;;;12.50;;
23232;SDS011;11785;49.500;8.288;2023-12-04T08:14:18;20.83;;;11.07;;
23232;SDS011;11785;49.500;8.288;2023-12-04T08:16:43;21.02;;;10.98;;
23232;SDS011;11785;49.500;8.288;2023-12-04T08:19:09;21.67;;;11.43;;
23232;SDS011;11785;49.500;8.288;2023-12-04T08:21:34;22.33;;;11.57;;
23232;SDS011;11785;49.500;8.288;2023-12-04T08:24:00;20.05;;;10.93;;
23232;SDS011;11785;49.500;8.288;2023-12-04T08:26:26;22.40;;;11.68;;
23232;SDS011;11785;49.500;8.288;2023-12-04T08:28:52;20.52;;;12.30;;
23232;SDS011;11785;49.500;8.288;2023-12-04T08:31:17;22.45;;;12.70;;
23232;SDS011;11785;49.500;8.288;2023-12-04T08:33:43;22.20;;;11.43;;
23232;SDS011;11785;49.500;8.288;2023-12-04T08:36:09;19.42;;;10.60;;
23232;SDS011;11785;49.500;8.288;2023-12-04T08:38:36;18.90;;;10.82;;
23232;SDS011;11785;49.500;8.288;2023-12-04T08:41:03;23.05;;;10.60;;
23232;SDS011;11785;49.500;8.288;2023-12-04T08:43:29;21.17;;;11.27;;
23232;SDS011;11785;49.500;8.288;2023-12-04T08:45:55;18.52;;;10.85;;
23232;SDS011;11785;49.500;8.288;2023-12-04T08:48:20;20.17;;;10.95;;
23232;SDS011;11785;49.500;8.288;2023-12-04T08:50:47;20.90;;;11.00;;
23232;SDS011;11785;49.500;8.288;2023-12-04T08:53:13;36.17;;;17.52;;
23232;SDS011;11785;49.500;8.288;2023-12-04T08:55:39;19.77;;;10.93;;
23232;SDS011;11785;49.500;8.288;2023-12-04T08:58:04;19.48;;;11.88;;
23232;SDS011;11785;49.500;8.288;2023-12-04T09:00:30;21.35;;;10.20;;
23232;SDS011;11785;49.500;8.288;2023-12-04T09:02:56;17.58;;;10.18;;
23232;SDS011;11785;49.500;8.288;2023-12-04T09:05:22;18.55;;;10.40;;
23232;SDS011;11785;49.500;8.288;2023-12-04T09:07:48;16.30;;;9.90;;
23232;SDS011;11785;49.500;8.288;2023-12-04T09:10:13;16.70;;;9.10;;
23232;SDS011;11785;49.500;8.288;2023-12-04T09:12:39;19.33;;;10.52;;
23232;SDS011;11785;49.500;8.288;2023-12-04T09:15:05;23.02;;;12.10;;
23232;SDS011;11785;49.500;8.288;2023-12-04T09:17:31;18.90;;;10.23;;
23232;SDS011;11785;49.500;8.288;2023-12-04T09:19:57;21.17;;;11.77;;
23232;SDS011;11785;49.500;8.288;2023-12-04T09:22:22;23.42;;;11.82;;
23232;SDS011;11785;49.500;8.288;2023-12-04T09:24:48;18.10;;;9.80;;
23232;SDS011;11785;49.500;8.288;2023-12-04T09:27:14;18.42;;;10.98;;
23232;SDS011;11785;49.500;8.288;2023-12-04T09:29:40;15.18;;;9.10;;
23232;SDS011;11785;49.500;8.288;2023-12-04T09:32:06;15.98;;;9.93;;
23232;SDS011;11785;49.500;8.288;2023-12-04T09:34:32;18.05;;;10.50;;
23232;SDS011;11785;49.500;8.288;2023-12-04T09:36:57;20.95;;;11.38;;
23232;SDS011;11785;49.500;8.288;2023-12-04T09:39:23;22.55;;;13.18;;
23232;SDS011;11785;49.500;8.288;2023-12-04T09:41:48;21.08;;;10.23;;
23232;SDS011;11785;49.500;8.288;2023-12-04T09:44:15;20.65;;;10.02;;
23232;SDS011;11785;49.500;8.288;2023-12-04T09:46:41;17.67;;;10.30;;
23232;SDS011;11785;49.500;8.288;2023-12-04T09:49:07;16.48;;;9.63;;
23232;SDS011;11785;49.500;8.288;2023-12-04T09:51:33;18.85;;;9.23;;
23232;SDS011;11785;49.500;8.288;2023-12-04T09:54:00;18.85;;;9.27;;
23232;SDS011;11785;49.500;8.288;2023-12-04T09:56:28;16.27;;;9.43;;
23232;SDS011;11785;49.500;8.288;2023-12-04T09:58:57;14.60;;;8.88;;
23232;SDS011;11785;49.500;8.288;2023-12-04T10:01:24;15.95;;;9.40;;
23232;SDS011;11785;49.500;8.288;2023-12-04T10:03:51;21.52;;;9.88;;
23232;SDS011;11785;49.500;8.288;2023-12-04T10:06:16;18.00;;;9.70;;
23232;SDS011;11785;49.500;8.288;2023-12-04T10:08:43;18.35;;;9.77;;
23232;SDS011;11785;49.500;8.288;2023-12-04T10:11:09;18.83;;;9.60;;
23232;SDS011;11785;49.500;8.288;2023-12-04T10:13:35;17.02;;;9.63;;
23232;SDS011;11785;49.500;8.288;2023-12-04T10:16:01;16.88;;;9.60;;
23232;SDS011;11785;49.500;8.288;2023-12-04T10:18:28;14.07;;;8.80;;
23232;SDS011;11785;49.500;8.288;2023-12-04T10:20:58;16.35;;;8.95;;
23232;SDS011;11785;49.500;8.288;2023-12-04T10:23:43;17.45;;;9.55;;
23232;SDS011;11785;49.500;8.288;2023-12-04T10:26:09;14.93;;;8.63;;
23232;SDS011;11785;49.500;8.288;2023-12-04T10:28:35;16.92;;;9.02;;
23232;SDS011;11785;49.500;8.288;2023-12-04T10:31:01;14.88;;;9.00;;
23232;SDS011;11785;49.500;8.288;2023-12-04T10:33:28;14.68;;;8.98;;
23232;SDS011;11785;49.500;8.288;2023-12-04T10:35:54;14.20;;;8.90;;
23232;SDS011;11785;49.500;8.288;2023-12-04T10:38:23;15.45;;;9.02;;
23232;SDS011;11785;49.500;8.288;2023-12-04T10:40:49;16.92;;;9.05;;
23232;SDS011;11785;49.500;8.288;2023-12-04T10:43:15;18.90;;;9.88;;
23232;SDS011;11785;49.500;8.288;2023-12-04T10:45:43;16.38;;;8.75;;
23232;SDS011;11785;49.500;8.288;2023-12-04T10:48:10;13.00;;;8.10;;
23232;SDS011;11785;49.500;8.288;2023-12-04T10:50:37;19.08;;;10.65;;
23232;SDS011;11785;49.500;8.288;2023-12-04T10:53:07;16.83;;;9.73;;
23232;SDS011;11785;49.500;8.288;2023-12-04T10:55:34;16.92;;;9.77;;
23232;SDS011;11785;49.500;8.288;2023-12-04T10:58:05;16.70;;;9.32;;
23232;SDS011;11785;49.500;8.288;2023-12-04T11:00:39;16.30;;;8.52;;
23232;SDS011;11785;49.500;8.288;2023-12-04T11:03:09;18.98;;;9.25;;
23232;SDS011;11785;49.500;8.288;2023-12-04T11:05:39;15.30;;;9.07;;
23232;SDS011;11785;49.500;8.288;2023-12-04T11:08:06;15.23;;;8.95;;
23232;SDS011;11785;49.500;8.288;2023-12-04T11:10:58;14.85;;;8.90;;
23232;SDS011;11785;49.500;8.288;2023-12-04T11:13:26;18.77;;;10.63;;
23232;SDS011;11785;49.500;8.288;2023-12-04T11:15:56;19.88;;;10.70;;
23232;SDS011;11785;49.500;8.288;2023-12-04T11:18:26;16.50;;;9.20;;
23232;SDS011;11785;49.500;8.288;2023-12-04T11:20:56;23.92;;;12.82;;
23232;SDS011;11785;49.500;8.288;2023-12-04T11:23:25;19.45;;;11.25;;
23232;SDS011;11785;49.500;8.288;2023-12-04T11:25:51;26.58;;;13.57;;
23232;SDS011;11785;49.500;8.288;2023-12-04T11:28:18;17.48;;;10.10;;
23232;SDS011;11785;49.500;8.288;2023-12-04T11:30:44;18.50;;;10.55;;
23232;SDS011;11785;49.500;8.288;2023-12-04T11:33:11;16.98;;;10.10;;
23232;SDS011;11785;49.500;8.288;2023-12-04T11:35:37;17.40;;;10.60;;
23232;SDS011;11785;49.500;8.288;2023-12-04T11:38:04;18.35;;;9.90;;
23232;SDS011;11785;49.500;8.288;2023-12-04T11:40:32;17.17;;;9.38;;
23232;SDS011;11785;49.500;8.288;2023-12-04T11:42:57;21.48;;;10.13;;
23232;SDS011;11785;49.500;8.288;2023-12-04T11:45:23;18.48;;;10.38;;
23232;SDS011;11785;49.500;8.288;2023-12-04T11:47:53;19.92;;;10.48;;
23232;SDS011;11785;49.500;8.288;2023-12-04T11:50:20;18.95;;;10.73;;
23232;SDS011;11785;49.500;8.288;2023-12-04T11:52:46;20.58;;;11.85;;
23232;SDS011;11785;49.500;8.288;2023-12-04T11:55:15;22.10;;;11.20;;
23232;SDS011;11785;49.500;8.288;2023-12-04T11:57:42;20.88;;;11.80;;
23232;SDS011;11785;49.500;8.288;2023-12-04T12:03:08;20.13;;;11.43;;
23232;SDS011;11785;49.500;8.288;2023-12-04T12:05:34;20.50;;;10.77;;
23232;SDS011;11785;49.500;8.288;2023-12-04T12:08:07;20.25;;;10.40;;
23232;SDS011;11785;49.500;8.288;2023-12-04T12:10:34;17.90;;;10.18;;
23232;SDS011;11785;49.500;8.288;2023-12-04T12:13:00;17.48;;;10.57;;
23232;SDS011;11785;49.500;8.288;2023-12-04T12:15:26;17.02;;;10.68;;
23232;SDS011;11785;49.500;8.288;2023-12-04T12:17:52;19.15;;;11.07;;
23232;SDS011;11785;49.500;8.288;2023-12-04T12:20:18;18.42;;;11.05;;
23232;SDS011;11785;49.500;8.288;2023-12-04T12:22:45;17.38;;;10.32;;
23232;SDS011;11785;49.500;8.288;2023-12-04T12:25:13;20.42;;;11.85;;
23232;SDS011;11785;49.500;8.288;2023-12-04T12:27:39;20.45;;;11.30;;
23232;SDS011;11785;49.500;8.288;2023-12-04T12:30:05;23.27;;;12.90;;
23232;SDS011;11785;49.500;8.288;2023-12-04T12:32:32;23.65;;;12.40;;
23232;SDS011;11785;49.500;8.288;2023-12-04T12:35:01;21.83;;;12.25;;
23232;SDS011;11785;49.500;8.288;2023-12-04T12:37:26;22.77;;;12.85;;
23232;SDS011;11785;49.500;8.288;2023-12-04T12:39:53;24.35;;;12.13;;
23232;SDS011;11785;49.500;8.288;2023-12-04T12:42:22;20.92;;;11.45;;
23232;SDS011;11785;49.500;8.288;2023-12-04T12:44:48;23.75;;;12.38;;
23232;SDS011;11785;49.500;8.288;2023-12-04T12:47:14;18.98;;;11.05;;
23232;SDS011;11785;49.500;8.288;2023-12-04T12:49:40;22.52;;;11.50;;
23232;SDS011;11785;49.500;8.288;2023-12-04T12:52:06;20.25;;;11.90;;
23232;SDS011;11785;49.500;8.288;2023-12-04T12:54:36;20.13;;;11.63;;
23232;SDS011;11785;49.500;8.288;2023-12-04T12:57:02;22.10;;;10.85;;
23232;SDS011;11785;49.500;8.288;2023-12-04T12:59:28;19.58;;;11.73;;
23232;SDS011;11785;49.500;8.288;2023-12-04T13:01:54;19.77;;;11.20;;
23232;SDS011;11785;49.500;8.288;2023-12-04T13:04:21;20.00;;;11.43;;
23232;SDS011;11785;49.500;8.288;2023-12-04T13:06:47;21.10;;;11.10;;
23232;SDS011;11785;49.500;8.288;2023-12-04T13:09:13;23.02;;;12.73;;
23232;SDS011;11785;49.500;8.288;2023-12-04T13:11:44;23.90;;;12.20;;
23232;SDS011;11785;49.500;8.288;2023-12-04T13:14:10;24.85;;;11.88;;
23232;SDS011;11785;49.500;8.288;2023-12-04T13:16:36;21.25;;;11.95;;
23232;SDS011;11785;49.500;8.288;2023-12-04T13:19:01;20.45;;;12.32;;
23232;SDS011;11785;49.500;8.288;2023-12-04T13:21:27;24.95;;;13.13;;
23232;SDS011;11785;49.500;8.288;2023-12-04T13:23:53;20.15;;;11.38;;
23232;SDS011;11785;49.500;8.288;2023-12-04T13:26:19;21.88;;;12.52;;
23232;SDS011;11785;49.500;8.288;2023-12-04T13:28:45;20.92;;;12.95;;
23232;SDS011;11785;49.500;8.288;2023-12-04T13:31:11;21.77;;;12.68;;
23232;SDS011;11785;49.500;8.288;2023-12-04T13:33:37;20.83;;;12.13;;
23232;SDS011;11785;49.500;8.288;2023-12-04T13:36:03;23.27;;;12.93;;
23232;SDS011;11785;49.500;8.288;2023-12-04T13:38:29;22.85;;;12.18;;
23232;SDS011;11785;49.500;8.288;2023-12-04T13:40:55;24.15;;;13.15;;
23232;SDS011;11785;49.500;8.288;2023-12-04T13:43:39;31.63;;;16.55;;
23232;SDS011;11785;49.500;8.288;2023-12-04T13:46:17;23.38;;;14.20;;
23232;SDS011;11785;49.500;8.288;2023-12-04T13:48:42;21.20;;;12.73;;
23232;SDS011;11785;49.500;8.288;2023-12-04T13:51:09;20.30;;;13.02;;
23232;SDS011;11785;49.500;8.288;2023-12-04T13:53:35;22.50;;;12.75;;
23232;SDS011;11785;49.500;8.288;2023-12-04T13:56:04;27.75;;;13.27;;
23232;SDS011;11785;49.500;8.288;2023-12-04T13:58:36;22.98;;;13.38;;
23232;SDS011;11785;49.500;8.288;2023-12-04T14:01:09;20.08;;;12.13;;
23232;SDS011;11785;49.500;8.288;2023-12-04T14:03:41;28.92;;;14.25;;
23232;SDS011;11785;49.500;8.288;2023-12-04T14:06:08;24.95;;;13.63;;
23232;SDS011;11785;49.500;8.288;2023-12-04T14:08:34;24.80;;;13.50;;
23232;SDS011;11785;49.500;8.288;2023-12-04T14:11:00;29.45;;;14.77;;
23232;SDS011;11785;49.500;8.288;2023-12-04T14:13:27;22.13;;;13.23;;
23232;SDS011;11785;49.500;8.288;2023-12-04T14:15:52;27.27;;;13.93;;
23232;SDS011;11785;49.500;8.288;2023-12-04T14:18:19;22.27;;;13.23;;
23232;SDS011;11785;49.500;8.288;2023-12-04T14:20:45;28.25;;;14.13;;